GTI1054 KIND-KHSV
Flight info
| Callsign | GTI1054 |
|---|---|
| Flight time | 0h 50m |
| Altitude | 34000 |
| Route | DAWNN1 MYS BWG HITMN Q139 SALMS |
| Aircraft | B77L/H-SDE1E2E3FGHIJ2J3J4J5M1RWXY/LB1D1 |
Departure
| Time | 2026-04-24 21:02 |
|---|---|
| Airport | Indianapolis International Airport (KIND) |
Arrival
| Time | 2026-04-24 21:52 |
|---|---|
| Airport | Huntsville International Airport (KHSV) |
| Time | Latitude | Longitude | Altitude | Speed | Heading |
|---|---|---|---|---|---|
| 2026-04-24 20:30 | 39.71793 | -86.27666 | 785 ft | 0 kts | 135° |
| 2026-04-24 20:48 | 39.71806 | -86.27684 | 762 ft | 4 kts | 120° |
| 2026-04-24 20:48 | 39.71813 | -86.27702 | 761 ft | 4 kts | 98° |
| 2026-04-24 20:49 | 39.71811 | -86.27732 | 792 ft | 4 kts | 65° |
| 2026-04-24 20:49 | 39.71798 | -86.27761 | 785 ft | 4 kts | 47° |
| 2026-04-24 20:49 | 39.71788 | -86.27774 | 785 ft | 0 kts | 44° |
| 2026-04-24 20:53 | 39.71789 | -86.27773 | 767 ft | 1 kts | 44° |
| 2026-04-24 20:53 | 39.71814 | -86.27741 | 785 ft | 9 kts | 44° |
| 2026-04-24 20:53 | 39.71878 | -86.27659 | 785 ft | 17 kts | 45° |
| 2026-04-24 20:53 | 39.71963 | -86.27548 | 785 ft | 19 kts | 45° |
| 2026-04-24 20:54 | 39.72050 | -86.27481 | 785 ft | 8 kts | 344° |
| 2026-04-24 20:54 | 39.72065 | -86.27527 | 785 ft | 5 kts | 258° |
| 2026-04-24 20:54 | 39.72040 | -86.27571 | 785 ft | 7 kts | 227° |
| 2026-04-24 20:54 | 39.71997 | -86.27628 | 785 ft | 12 kts | 226° |
| 2026-04-24 20:55 | 39.71920 | -86.27729 | 786 ft | 19 kts | 225° |
| 2026-04-24 20:55 | 39.71840 | -86.27831 | 786 ft | 15 kts | 224° |
| 2026-04-24 20:55 | 39.71819 | -86.27910 | 786 ft | 9 kts | 291° |
| 2026-04-24 20:55 | 39.71870 | -86.27987 | 787 ft | 13 kts | 315° |
| 2026-04-24 20:56 | 39.71947 | -86.28088 | 786 ft | 18 kts | 315° |
| 2026-04-24 20:56 | 39.72026 | -86.28167 | 785 ft | 9 kts | 358° |
| 2026-04-24 20:56 | 39.72073 | -86.28139 | 785 ft | 8 kts | 15° |
| 2026-04-24 20:56 | 39.72122 | -86.28168 | 785 ft | 10 kts | 318° |
| 2026-04-24 20:57 | 39.72183 | -86.28246 | 785 ft | 15 kts | 315° |
| 2026-04-24 20:57 | 39.72263 | -86.28350 | 785 ft | 19 kts | 315° |
| 2026-04-24 20:57 | 39.72361 | -86.28480 | 785 ft | 20 kts | 314° |
| 2026-04-24 20:57 | 39.72442 | -86.28608 | 785 ft | 17 kts | 303° |
| 2026-04-24 20:58 | 39.72506 | -86.28741 | 785 ft | 17 kts | 302° |
| 2026-04-24 20:58 | 39.72570 | -86.28875 | 785 ft | 17 kts | 302° |
| 2026-04-24 20:58 | 39.72635 | -86.29007 | 785 ft | 17 kts | 302° |
| 2026-04-24 20:58 | 39.72701 | -86.29140 | 785 ft | 17 kts | 306° |
| 2026-04-24 20:59 | 39.72755 | -86.29217 | 785 ft | 0 kts | 315° |
| 2026-04-24 20:59 | 39.72758 | -86.29221 | 785 ft | 2 kts | 315° |
| 2026-04-24 21:00 | 39.72778 | -86.29247 | 785 ft | 6 kts | 315° |
| 2026-04-24 21:00 | 39.72797 | -86.29310 | 784 ft | 9 kts | 261° |
| 2026-04-24 21:00 | 39.72757 | -86.29380 | 784 ft | 7 kts | 226° |
| 2026-04-24 21:00 | 39.72754 | -86.29384 | 784 ft | 0 kts | 226° |
| 2026-04-24 21:01 | 39.72727 | -86.29421 | 784 ft | 19 kts | 226° |
| 2026-04-24 21:01 | 39.72551 | -86.29647 | 783 ft | 64 kts | 224° |
| 2026-04-24 21:01 | 39.71985 | -86.30371 | 783 ft | 163 kts | 224° |
| 2026-04-24 21:01 | 39.70997 | -86.31620 | 1155 ft | 215 kts | 229° |
| 2026-04-24 21:02 | 39.69857 | -86.33023 | 2297 ft | 231 kts | 223° |
| 2026-04-24 21:02 | 39.68723 | -86.34479 | 3761 ft | 223 kts | 223° |
| 2026-04-24 21:02 | 39.67630 | -86.35903 | 4778 ft | 227 kts | 224° |
| 2026-04-24 21:02 | 39.66508 | -86.37432 | 5518 ft | 237 kts | 225° |
| 2026-04-24 21:03 | 39.65507 | -86.39171 | 6275 ft | 245 kts | 237° |
| 2026-04-24 21:03 | 39.64686 | -86.41146 | 7119 ft | 250 kts | 239° |
| 2026-04-24 21:03 | 39.63642 | -86.42829 | 7939 ft | 247 kts | 212° |
| 2026-04-24 21:03 | 39.61993 | -86.43438 | 8683 ft | 259 kts | 179° |
| 2026-04-24 21:04 | 39.60243 | -86.42739 | 9564 ft | 268 kts | 161° |
| 2026-04-24 21:04 | 39.58509 | -86.41819 | 10249 ft | 273 kts | 166° |
| 2026-04-24 21:04 | 39.56650 | -86.41004 | 10616 ft | 295 kts | 167° |
| 2026-04-24 21:04 | 39.54607 | -86.40131 | 10804 ft | 323 kts | 166° |
| 2026-04-24 21:05 | 39.52384 | -86.39160 | 11151 ft | 345 kts | 165° |
| 2026-04-24 21:05 | 39.50087 | -86.38129 | 11866 ft | 355 kts | 165° |
| 2026-04-24 21:05 | 39.47729 | -86.37058 | 12627 ft | 363 kts | 165° |
| 2026-04-24 21:05 | 39.45333 | -86.35965 | 13512 ft | 368 kts | 165° |
| 2026-04-24 21:06 | 39.43076 | -86.34936 | 14234 ft | 373 kts | 165° |
| 2026-04-24 21:06 | 39.40477 | -86.33755 | 14977 ft | 380 kts | 165° |
| 2026-04-24 21:06 | 39.37941 | -86.32613 | 15682 ft | 385 kts | 166° |
| 2026-04-24 21:06 | 39.35345 | -86.31718 | 16393 ft | 388 kts | 172° |
| 2026-04-24 21:07 | 39.32701 | -86.31187 | 17076 ft | 391 kts | 178° |
| 2026-04-24 21:07 | 39.29966 | -86.30888 | 17756 ft | 397 kts | 179° |
| 2026-04-24 21:07 | 39.27193 | -86.30604 | 18388 ft | 402 kts | 179° |
| 2026-04-24 21:07 | 39.24391 | -86.30313 | 19007 ft | 407 kts | 179° |
| 2026-04-24 21:08 | 39.21554 | -86.30011 | 19635 ft | 411 kts | 179° |
| 2026-04-24 21:08 | 39.18696 | -86.29699 | 20280 ft | 414 kts | 179° |
| 2026-04-24 21:08 | 39.15805 | -86.29379 | 20877 ft | 419 kts | 179° |
| 2026-04-24 21:08 | 39.12886 | -86.29054 | 21471 ft | 423 kts | 179° |
| 2026-04-24 21:09 | 39.09932 | -86.28724 | 22057 ft | 428 kts | 179° |
| 2026-04-24 21:09 | 39.06948 | -86.28392 | 22638 ft | 432 kts | 179° |
| 2026-04-24 21:09 | 39.03918 | -86.28056 | 23209 ft | 437 kts | 179° |
| 2026-04-24 21:09 | 39.00907 | -86.27723 | 23704 ft | 441 kts | 179° |
| 2026-04-24 21:10 | 38.97839 | -86.27384 | 24203 ft | 444 kts | 179° |
| 2026-04-24 21:10 | 38.94734 | -86.27041 | 24735 ft | 447 kts | 179° |
| 2026-04-24 21:10 | 38.91621 | -86.26697 | 25243 ft | 450 kts | 178° |
| 2026-04-24 21:10 | 38.88487 | -86.26351 | 25757 ft | 453 kts | 178° |
| 2026-04-24 21:11 | 38.85331 | -86.26003 | 26253 ft | 456 kts | 178° |
| 2026-04-24 21:11 | 38.82151 | -86.25652 | 26752 ft | 460 kts | 178° |
| 2026-04-24 21:11 | 38.78951 | -86.25300 | 27214 ft | 464 kts | 178° |
| 2026-04-24 21:11 | 38.75757 | -86.24948 | 27673 ft | 467 kts | 178° |
| 2026-04-24 21:12 | 38.72510 | -86.24591 | 28140 ft | 470 kts | 178° |
| 2026-04-24 21:12 | 38.69225 | -86.24229 | 28573 ft | 474 kts | 178° |
| 2026-04-24 21:12 | 38.65924 | -86.23867 | 29023 ft | 477 kts | 178° |
| 2026-04-24 21:12 | 38.62608 | -86.23503 | 29481 ft | 479 kts | 178° |
| 2026-04-24 21:13 | 38.59282 | -86.23137 | 30024 ft | 478 kts | 178° |
| 2026-04-24 21:13 | 38.55976 | -86.22849 | 30584 ft | 475 kts | 181° |
| 2026-04-24 21:13 | 38.52687 | -86.22877 | 31097 ft | 472 kts | 184° |
| 2026-04-24 21:13 | 38.49439 | -86.22975 | 31579 ft | 471 kts | 184° |
| 2026-04-24 21:14 | 38.46168 | -86.23084 | 32059 ft | 470 kts | 184° |
| 2026-04-24 21:14 | 38.42901 | -86.23187 | 32534 ft | 469 kts | 184° |
| 2026-04-24 21:14 | 38.39647 | -86.23280 | 32996 ft | 468 kts | 183° |
| 2026-04-24 21:14 | 38.36386 | -86.23367 | 33403 ft | 468 kts | 183° |
| 2026-04-24 21:15 | 38.33129 | -86.23448 | 33808 ft | 467 kts | 183° |
| 2026-04-24 21:15 | 38.29866 | -86.23528 | 33820 ft | 470 kts | 183° |
| 2026-04-24 21:15 | 38.23333 | -86.23684 | 33818 ft | 467 kts | 183° |
| 2026-04-24 21:16 | 38.16892 | -86.23837 | 33822 ft | 465 kts | 183° |
| 2026-04-24 21:16 | 38.10404 | -86.23995 | 33834 ft | 464 kts | 183° |
| 2026-04-24 21:17 | 38.03937 | -86.24151 | 33836 ft | 464 kts | 183° |
| 2026-04-24 21:17 | 37.98564 | -86.24280 | 33836 ft | 465 kts | 183° |
| 2026-04-24 21:18 | 37.90989 | -86.24464 | 33838 ft | 465 kts | 183° |
| 2026-04-24 21:18 | 37.84604 | -86.25330 | 33847 ft | 464 kts | 190° |
| 2026-04-24 21:19 | 37.78226 | -86.26616 | 33840 ft | 464 kts | 191° |
| 2026-04-24 21:19 | 37.71831 | -86.27890 | 33845 ft | 465 kts | 190° |
| 2026-04-24 21:20 | 37.62217 | -86.29752 | 33849 ft | 466 kts | 189° |
| 2026-04-24 21:21 | 37.55837 | -86.30975 | 33846 ft | 466 kts | 189° |
| 2026-04-24 21:21 | 37.49408 | -86.32207 | 33842 ft | 467 kts | 189° |
| 2026-04-24 21:22 | 37.42974 | -86.33441 | 33843 ft | 468 kts | 189° |
| 2026-04-24 21:22 | 37.36516 | -86.34676 | 33845 ft | 469 kts | 189° |
| 2026-04-24 21:23 | 37.30089 | -86.35902 | 33856 ft | 470 kts | 189° |
| 2026-04-24 21:23 | 37.23608 | -86.37136 | 33860 ft | 470 kts | 189° |
| 2026-04-24 21:24 | 37.17125 | -86.38370 | 33870 ft | 471 kts | 189° |
| 2026-04-24 21:24 | 37.10663 | -86.39597 | 33881 ft | 471 kts | 189° |
| 2026-04-24 21:25 | 37.04183 | -86.40827 | 33886 ft | 471 kts | 189° |
| 2026-04-24 21:25 | 36.97697 | -86.42056 | 33880 ft | 471 kts | 189° |
| 2026-04-24 21:26 | 36.91321 | -86.43837 | 33879 ft | 470 kts | 195° |
| 2026-04-24 21:26 | 36.84999 | -86.45905 | 33883 ft | 470 kts | 195° |
| 2026-04-24 21:27 | 36.78665 | -86.47960 | 33876 ft | 470 kts | 195° |
| 2026-04-24 21:27 | 36.72413 | -86.49960 | 33857 ft | 460 kts | 195° |
| 2026-04-24 21:28 | 36.66323 | -86.51893 | 33440 ft | 448 kts | 195° |
| 2026-04-24 21:28 | 36.63316 | -86.52846 | 33021 ft | 443 kts | 195° |
| 2026-04-24 21:28 | 36.60341 | -86.53790 | 32568 ft | 439 kts | 195° |
| 2026-04-24 21:28 | 36.57394 | -86.54724 | 32113 ft | 436 kts | 195° |
| 2026-04-24 21:29 | 36.54467 | -86.55650 | 31667 ft | 432 kts | 195° |
| 2026-04-24 21:29 | 36.51564 | -86.56569 | 31228 ft | 429 kts | 196° |
| 2026-04-24 21:29 | 36.48677 | -86.57483 | 30777 ft | 426 kts | 196° |
| 2026-04-24 21:29 | 36.45817 | -86.58388 | 30347 ft | 423 kts | 196° |
| 2026-04-24 21:30 | 36.43063 | -86.59258 | 29905 ft | 421 kts | 197° |
| 2026-04-24 21:30 | 36.40240 | -86.60150 | 29403 ft | 418 kts | 197° |
| 2026-04-24 21:30 | 36.37431 | -86.61037 | 28924 ft | 415 kts | 197° |
| 2026-04-24 21:30 | 36.34641 | -86.61917 | 28451 ft | 412 kts | 197° |
| 2026-04-24 21:31 | 36.31904 | -86.62779 | 28011 ft | 409 kts | 197° |
| 2026-04-24 21:31 | 36.29151 | -86.63645 | 27567 ft | 406 kts | 197° |
| 2026-04-24 21:31 | 36.26423 | -86.64503 | 27134 ft | 403 kts | 197° |
| 2026-04-24 21:31 | 36.23705 | -86.65358 | 26713 ft | 401 kts | 197° |
| 2026-04-24 21:32 | 36.21011 | -86.66205 | 26288 ft | 398 kts | 197° |
| 2026-04-24 21:32 | 36.18328 | -86.67047 | 25862 ft | 396 kts | 197° |
| 2026-04-24 21:32 | 36.15665 | -86.67882 | 25443 ft | 394 kts | 197° |
| 2026-04-24 21:32 | 36.12979 | -86.68566 | 25031 ft | 394 kts | 191° |
| 2026-04-24 21:33 | 36.10252 | -86.68889 | 24613 ft | 393 kts | 187° |
| 2026-04-24 21:33 | 36.08451 | -86.69044 | 24343 ft | 392 kts | 187° |
| 2026-04-24 21:33 | 36.04807 | -86.69342 | 23774 ft | 391 kts | 186° |
| 2026-04-24 21:33 | 36.02094 | -86.69563 | 23323 ft | 390 kts | 187° |
| 2026-04-24 21:34 | 35.99391 | -86.69790 | 22857 ft | 388 kts | 187° |
| 2026-04-24 21:34 | 35.96701 | -86.70020 | 22427 ft | 386 kts | 187° |
| 2026-04-24 21:34 | 35.94029 | -86.70252 | 22007 ft | 384 kts | 187° |
| 2026-04-24 21:34 | 35.91373 | -86.70485 | 21589 ft | 382 kts | 187° |
| 2026-04-24 21:35 | 35.88737 | -86.70718 | 21181 ft | 379 kts | 187° |
| 2026-04-24 21:35 | 35.86108 | -86.70950 | 20772 ft | 378 kts | 187° |
| 2026-04-24 21:35 | 35.84375 | -86.71104 | 20504 ft | 376 kts | 187° |
| 2026-04-24 21:35 | 35.80920 | -86.71411 | 19968 ft | 375 kts | 187° |
| 2026-04-24 21:36 | 35.78323 | -86.71641 | 19557 ft | 373 kts | 187° |
| 2026-04-24 21:36 | 35.75732 | -86.71871 | 19152 ft | 372 kts | 187° |
| 2026-04-24 21:36 | 35.73153 | -86.72099 | 18750 ft | 372 kts | 187° |
| 2026-04-24 21:36 | 35.70575 | -86.72327 | 18327 ft | 371 kts | 187° |
| 2026-04-24 21:37 | 35.67995 | -86.72556 | 17881 ft | 371 kts | 187° |
| 2026-04-24 21:37 | 35.65424 | -86.72784 | 17477 ft | 369 kts | 187° |
| 2026-04-24 21:37 | 35.63700 | -86.72935 | 17210 ft | 368 kts | 187° |
| 2026-04-24 21:37 | 35.60329 | -86.73231 | 16670 ft | 365 kts | 187° |
| 2026-04-24 21:38 | 35.58644 | -86.73379 | 16404 ft | 364 kts | 187° |
| 2026-04-24 21:38 | 35.56120 | -86.73601 | 16005 ft | 363 kts | 187° |
| 2026-04-24 21:38 | 35.53607 | -86.73823 | 15603 ft | 361 kts | 187° |
| 2026-04-24 21:38 | 35.50289 | -86.74115 | 15083 ft | 360 kts | 187° |
| 2026-04-24 21:39 | 35.47794 | -86.74334 | 14678 ft | 359 kts | 187° |
| 2026-04-24 21:39 | 35.46114 | -86.74481 | 14413 ft | 358 kts | 187° |
| 2026-04-24 21:39 | 35.43629 | -86.74699 | 14017 ft | 358 kts | 187° |
| 2026-04-24 21:39 | 35.41145 | -86.74917 | 13605 ft | 357 kts | 187° |
| 2026-04-24 21:40 | 35.38698 | -86.75132 | 13171 ft | 357 kts | 187° |
| 2026-04-24 21:40 | 35.36198 | -86.75352 | 12748 ft | 355 kts | 187° |
| 2026-04-24 21:40 | 35.33763 | -86.75565 | 12352 ft | 353 kts | 187° |
| 2026-04-24 21:40 | 35.31314 | -86.75780 | 11960 ft | 352 kts | 187° |
| 2026-04-24 21:41 | 35.28881 | -86.75993 | 11575 ft | 350 kts | 186° |
| 2026-04-24 21:41 | 35.26455 | -86.76206 | 11193 ft | 349 kts | 186° |
| 2026-04-24 21:41 | 35.24034 | -86.76417 | 10811 ft | 348 kts | 186° |
| 2026-04-24 21:41 | 35.21619 | -86.76627 | 10436 ft | 346 kts | 186° |
| 2026-04-24 21:42 | 35.19243 | -86.76833 | 10289 ft | 336 kts | 186° |
| 2026-04-24 21:42 | 35.17002 | -86.77026 | 10111 ft | 309 kts | 186° |
| 2026-04-24 21:42 | 35.14941 | -86.77202 | 9954 ft | 284 kts | 186° |
| 2026-04-24 21:42 | 35.13048 | -86.77367 | 9639 ft | 268 kts | 186° |
| 2026-04-24 21:43 | 35.11197 | -86.77529 | 9364 ft | 265 kts | 186° |
| 2026-04-24 21:43 | 35.09366 | -86.77690 | 9057 ft | 263 kts | 186° |
| 2026-04-24 21:43 | 35.07540 | -86.77851 | 8752 ft | 263 kts | 186° |
| 2026-04-24 21:43 | 35.05743 | -86.78009 | 8449 ft | 261 kts | 186° |
| 2026-04-24 21:44 | 35.03927 | -86.78167 | 8166 ft | 260 kts | 186° |
| 2026-04-24 21:44 | 35.02123 | -86.78323 | 7870 ft | 259 kts | 186° |
| 2026-04-24 21:44 | 35.00333 | -86.78346 | 7545 ft | 258 kts | 171° |
| 2026-04-24 21:44 | 34.98706 | -86.77510 | 7280 ft | 256 kts | 150° |
| 2026-04-24 21:45 | 34.97169 | -86.76333 | 7020 ft | 267 kts | 151° |
| 2026-04-24 21:45 | 34.95554 | -86.75128 | 6581 ft | 274 kts | 152° |
| 2026-04-24 21:45 | 34.93930 | -86.73921 | 6206 ft | 273 kts | 151° |
| 2026-04-24 21:45 | 34.92310 | -86.72717 | 5866 ft | 271 kts | 151° |
| 2026-04-24 21:46 | 34.90695 | -86.71588 | 5527 ft | 262 kts | 161° |
| 2026-04-24 21:46 | 34.88956 | -86.71246 | 5327 ft | 245 kts | 182° |
| 2026-04-24 21:46 | 34.87283 | -86.71427 | 5327 ft | 244 kts | 200° |
| 2026-04-24 21:46 | 34.85821 | -86.72572 | 5094 ft | 262 kts | 232° |
| 2026-04-24 21:47 | 34.85111 | -86.74600 | 4796 ft | 263 kts | 260° |
| 2026-04-24 21:47 | 34.84649 | -86.76699 | 4325 ft | 255 kts | 239° |
| 2026-04-24 21:47 | 34.83434 | -86.78194 | 4028 ft | 245 kts | 207° |
| 2026-04-24 21:47 | 34.81880 | -86.78617 | 3775 ft | 226 kts | 175° |
| 2026-04-24 21:48 | 34.80414 | -86.78291 | 3565 ft | 203 kts | 174° |
| 2026-04-24 21:48 | 34.79072 | -86.78103 | 3273 ft | 186 kts | 178° |
| 2026-04-24 21:48 | 34.77831 | -86.77998 | 3030 ft | 172 kts | 182° |
| 2026-04-24 21:48 | 34.76634 | -86.77989 | 2837 ft | 173 kts | 183° |
| 2026-04-24 21:49 | 34.75413 | -86.78007 | 2608 ft | 178 kts | 182° |
| 2026-04-24 21:49 | 34.74188 | -86.78028 | 2366 ft | 173 kts | 183° |
| 2026-04-24 21:49 | 34.73019 | -86.78055 | 2156 ft | 164 kts | 183° |
| 2026-04-24 21:49 | 34.71934 | -86.78076 | 1986 ft | 152 kts | 185° |
| 2026-04-24 21:50 | 34.70862 | -86.78098 | 1777 ft | 156 kts | 184° |
| 2026-04-24 21:50 | 34.69764 | -86.78121 | 1550 ft | 157 kts | 184° |
| 2026-04-24 21:50 | 34.68674 | -86.78143 | 1287 ft | 157 kts | 184° |
| 2026-04-24 21:50 | 34.67603 | -86.78155 | 1100 ft | 153 kts | 182° |
| 2026-04-24 21:51 | 34.66545 | -86.78181 | 948 ft | 151 kts | 182° |
| 2026-04-24 21:51 | 34.65512 | -86.78201 | 755 ft | 147 kts | 183° |
| 2026-04-24 21:51 | 34.64493 | -86.78229 | 640 ft | 140 kts | 181° |
| 2026-04-24 21:51 | 34.63695 | -86.78244 | 635 ft | 88 kts | 181° |
| 2026-04-24 21:52 | 34.63299 | -86.78250 | 638 ft | 29 kts | 181° |
| 2026-04-24 21:52 | 34.63129 | -86.78240 | 635 ft | 15 kts | 156° |
| 2026-04-24 21:52 | 34.63099 | -86.78183 | 635 ft | 0 kts | 102° |
| 2026-04-24 21:52 | 34.63098 | -86.78179 | 632 ft | 0 kts | 102° |
| 2026-04-24 21:53 | 34.63092 | -86.78131 | 632 ft | 13 kts | 95° |
| 2026-04-24 21:54 | 34.63111 | -86.78027 | 640 ft | 13 kts | 43° |
| 2026-04-24 21:54 | 34.63200 | -86.78002 | 635 ft | 13 kts | 2° |
| 2026-04-24 21:54 | 34.63288 | -86.77999 | 636 ft | 14 kts | 1° |
| 2026-04-24 21:54 | 34.63393 | -86.77997 | 642 ft | 16 kts | 1° |
| 2026-04-24 21:55 | 34.63506 | -86.77995 | 636 ft | 16 kts | 0° |
| 2026-04-24 21:55 | 34.63619 | -86.77994 | 638 ft | 16 kts | 0° |
| 2026-04-24 21:55 | 34.63738 | -86.77993 | 637 ft | 18 kts | 0° |
| 2026-04-24 21:55 | 34.63867 | -86.77989 | 637 ft | 19 kts | 1° |
| 2026-04-24 21:56 | 34.63998 | -86.77985 | 645 ft | 19 kts | 1° |
| 2026-04-24 21:56 | 34.64129 | -86.77982 | 641 ft | 19 kts | 1° |
| 2026-04-24 21:56 | 34.64259 | -86.77979 | 637 ft | 19 kts | 1° |
| 2026-04-24 21:56 | 34.64392 | -86.77976 | 641 ft | 18 kts | 1° |
| 2026-04-24 21:57 | 34.64496 | -86.77934 | 643 ft | 16 kts | 65° |
| 2026-04-24 21:57 | 34.64504 | -86.77802 | 637 ft | 16 kts | 90° |
| 2026-04-24 21:57 | 34.64503 | -86.77662 | 636 ft | 18 kts | 90° |
| 2026-04-24 21:57 | 34.64501 | -86.77491 | 642 ft | 22 kts | 91° |
| 2026-04-24 21:58 | 34.64497 | -86.77295 | 631 ft | 20 kts | 91° |
| 2026-04-24 21:58 | 34.64494 | -86.77124 | 625 ft | 21 kts | 91° |
| 2026-04-24 21:58 | 34.64491 | -86.76932 | 628 ft | 24 kts | 91° |
| 2026-04-24 21:58 | 34.64493 | -86.76762 | 624 ft | 16 kts | 76° |
| 2026-04-24 21:59 | 34.64592 | -86.76712 | 626 ft | 17 kts | 2° |
| 2026-04-24 21:59 | 34.64707 | -86.76709 | 628 ft | 17 kts | 1° |
| 2026-04-24 21:59 | 34.64813 | -86.76726 | 631 ft | 15 kts | 319° |
| 2026-04-24 21:59 | 34.64834 | -86.76837 | 633 ft | 13 kts | 274° |
| 2026-04-24 22:00 | 34.64842 | -86.76943 | 629 ft | 13 kts | 292° |
| 2026-04-24 22:00 | 34.64913 | -86.76983 | 632 ft | 11 kts | 354° |
| 2026-04-24 22:00 | 34.64994 | -86.76982 | 632 ft | 12 kts | 3° |
| 2026-04-24 22:00 | 34.65059 | -86.76933 | 633 ft | 12 kts | 81° |
| 2026-04-24 22:01 | 34.65013 | -86.76880 | 633 ft | 11 kts | 176° |
| 2026-04-24 22:01 | 34.64948 | -86.76876 | 629 ft | 9 kts | 180° |
| 2026-04-24 22:01 | 34.64905 | -86.76916 | 636 ft | 6 kts | 263° |
| 2026-04-24 22:01 | 34.64907 | -86.76928 | 634 ft | 0 kts | 273° |